sensor_id;sensor_type;location;lat;lon;timestamp;pressure;altitude;pressure_sealevel;temperature;humidity
56689;BME280;42565;53.342;-1.534;2022-09-12T00:01:42;98628.50;;;17.67;68.28
56689;BME280;42565;53.342;-1.534;2022-09-12T00:04:09;98629.98;;;18.19;67.51
56689;BME280;42565;53.342;-1.534;2022-09-12T00:06:37;98630.26;;;17.82;69.20
56689;BME280;42565;53.342;-1.534;2022-09-12T00:09:06;98632.53;;;16.72;72.07
56689;BME280;42565;53.342;-1.534;2022-09-12T00:11:35;98632.46;;;16.83;73.11
56689;BME280;42565;53.342;-1.534;2022-09-12T00:14:05;98631.73;;;16.57;73.98
56689;BME280;42565;53.342;-1.534;2022-09-12T00:16:35;98632.91;;;16.14;78.29
56689;BME280;42565;53.342;-1.534;2022-09-12T00:19:04;98628.87;;;16.41;76.48
56689;BME280;42565;53.342;-1.534;2022-09-12T00:21:33;98621.93;;;16.64;76.66
56689;BME280;42565;53.342;-1.534;2022-09-12T00:24:00;98615.85;;;16.74;75.08
56689;BME280;42565;53.342;-1.534;2022-09-12T00:26:29;98612.12;;;16.71;77.31
56689;BME280;42565;53.342;-1.534;2022-09-12T00:28:57;98612.47;;;17.14;76.66
56689;BME280;42565;53.342;-1.534;2022-09-12T00:31:25;98612.93;;;16.42;78.90
56689;BME280;42565;53.342;-1.534;2022-09-12T00:33:55;98611.04;;;15.66;82.73
56689;BME280;42565;53.342;-1.534;2022-09-12T00:36:24;98602.77;;;16.71;80.20
56689;BME280;42565;53.342;-1.534;2022-09-12T00:38:52;98600.84;;;16.70;79.94
56689;BME280;42565;53.342;-1.534;2022-09-12T00:41:22;98598.71;;;16.69;80.31
56689;BME280;42565;53.342;-1.534;2022-09-12T00:43:51;98597.28;;;16.54;80.37
56689;BME280;42565;53.342;-1.534;2022-09-12T00:46:27;98595.91;;;16.56;80.76
56689;BME280;42565;53.342;-1.534;2022-09-12T00:49:04;98593.62;;;16.48;80.80
56689;BME280;42565;53.342;-1.534;2022-09-12T00:51:33;98595.01;;;16.36;84.12
56689;BME280;42565;53.342;-1.534;2022-09-12T00:54:07;98589.82;;;16.48;82.62
56689;BME280;42565;53.342;-1.534;2022-09-12T00:56:39;98584.59;;;16.79;82.50
56689;BME280;42565;53.342;-1.534;2022-09-12T00:59:11;98587.23;;;15.67;86.23
56689;BME280;42565;53.342;-1.534;2022-09-12T01:01:39;98590.89;;;16.14;85.80
56689;BME280;42565;53.342;-1.534;2022-09-12T01:04:08;98589.59;;;16.01;85.76
56689;BME280;42565;53.342;-1.534;2022-09-12T01:06:39;98581.85;;;16.73;82.77
56689;BME280;42565;53.342;-1.534;2022-09-12T01:09:06;98582.04;;;16.74;82.51
56689;BME280;42565;53.342;-1.534;2022-09-12T01:11:36;98578.80;;;16.81;82.80
56689;BME280;42565;53.342;-1.534;2022-09-12T01:14:05;98577.99;;;16.06;85.70
56689;BME280;42565;53.342;-1.534;2022-09-12T01:16:35;98578.56;;;16.83;82.40
56689;BME280;42565;53.342;-1.534;2022-09-12T01:19:15;98580.53;;;16.34;85.12
56689;BME280;42565;53.342;-1.534;2022-09-12T01:21:54;98584.11;;;16.39;86.15
56689;BME280;42565;53.342;-1.534;2022-09-12T01:24:41;98579.05;;;15.99;87.17
56689;BME280;42565;53.342;-1.534;2022-09-12T01:27:24;98577.44;;;15.99;86.90
56689;BME280;42565;53.342;-1.534;2022-09-12T01:30:42;98566.11;;;16.47;85.55
56689;BME280;42565;53.342;-1.534;2022-09-12T01:33:26;98556.03;;;16.23;84.81
56689;BME280;42565;53.342;-1.534;2022-09-12T01:36:07;98552.96;;;16.11;87.81
56689;BME280;42565;53.342;-1.534;2022-09-12T01:38:40;98546.35;;;16.13;86.88
56689;BME280;42565;53.342;-1.534;2022-09-12T01:41:20;98548.53;;;16.20;88.39
56689;BME280;42565;53.342;-1.534;2022-09-12T01:43:56;98544.06;;;15.35;91.83
56689;BME280;42565;53.342;-1.534;2022-09-12T01:46:30;98544.97;;;16.31;87.78
56689;BME280;42565;53.342;-1.534;2022-09-12T01:49:01;98538.49;;;16.21;87.39
56689;BME280;42565;53.342;-1.534;2022-09-12T01:51:37;98544.08;;;16.17;88.60
56689;BME280;42565;53.342;-1.534;2022-09-12T01:54:07;98539.34;;;16.02;89.06
56689;BME280;42565;53.342;-1.534;2022-09-12T01:56:38;98533.96;;;16.27;88.26
56689;BME280;42565;53.342;-1.534;2022-09-12T01:59:11;98541.41;;;16.27;88.62
56689;BME280;42565;53.342;-1.534;2022-09-12T02:01:45;98537.51;;;16.84;86.11
56689;BME280;42565;53.342;-1.534;2022-09-12T02:04:17;98534.18;;;16.68;86.46
56689;BME280;42565;53.342;-1.534;2022-09-12T02:06:50;98546.21;;;16.28;88.02
56689;BME280;42565;53.342;-1.534;2022-09-12T02:09:23;98543.12;;;16.49;86.93
56689;BME280;42565;53.342;-1.534;2022-09-12T02:11:57;98545.53;;;16.28;86.86
56689;BME280;42565;53.342;-1.534;2022-09-12T02:14:28;98548.98;;;15.97;90.27
56689;BME280;42565;53.342;-1.534;2022-09-12T02:16:59;98547.00;;;15.95;90.96
56689;BME280;42565;53.342;-1.534;2022-09-12T02:19:34;98539.05;;;16.50;87.39
56689;BME280;42565;53.342;-1.534;2022-09-12T02:22:04;98539.67;;;16.08;88.72
56689;BME280;42565;53.342;-1.534;2022-09-12T02:24:36;98540.84;;;16.28;88.82
56689;BME280;42565;53.342;-1.534;2022-09-12T02:27:07;98543.10;;;16.55;87.32
56689;BME280;42565;53.342;-1.534;2022-09-12T02:29:36;98542.12;;;16.26;88.14
56689;BME280;42565;53.342;-1.534;2022-09-12T02:32:06;98544.56;;;16.28;87.80
56689;BME280;42565;53.342;-1.534;2022-09-12T02:34:43;98537.41;;;16.75;87.18
56689;BME280;42565;53.342;-1.534;2022-09-12T02:37:33;98531.88;;;16.28;89.08
56689;BME280;42565;53.342;-1.534;2022-09-12T02:40:06;98533.51;;;15.69;92.06
56689;BME280;42565;53.342;-1.534;2022-09-12T02:42:34;98530.04;;;15.58;93.19
56689;BME280;42565;53.342;-1.534;2022-09-12T02:45:02;98522.63;;;15.72;92.48
56689;BME280;42565;53.342;-1.534;2022-09-12T02:47:35;98519.75;;;15.29;95.12
56689;BME280;42565;53.342;-1.534;2022-09-12T02:50:05;98522.32;;;15.59;94.23
56689;BME280;42565;53.342;-1.534;2022-09-12T02:52:32;98525.87;;;15.59;95.25
56689;BME280;42565;53.342;-1.534;2022-09-12T02:54:59;98529.25;;;15.96;94.04
56689;BME280;42565;53.342;-1.534;2022-09-12T02:57:28;98534.23;;;16.14;92.65
56689;BME280;42565;53.342;-1.534;2022-09-12T02:59:58;98531.41;;;16.77;88.76
56689;BME280;42565;53.342;-1.534;2022-09-12T03:02:31;98529.96;;;15.86;90.08
56689;BME280;42565;53.342;-1.534;2022-09-12T03:05:12;98524.51;;;15.74;93.17
56689;BME280;42565;53.342;-1.534;2022-09-12T03:07:55;98525.44;;;16.10;91.87
56689;BME280;42565;53.342;-1.534;2022-09-12T03:10:31;98522.80;;;16.67;88.61
56689;BME280;42565;53.342;-1.534;2022-09-12T03:13:10;98522.03;;;16.84;87.55
56689;BME280;42565;53.342;-1.534;2022-09-12T03:15:48;98525.95;;;16.40;88.89
56689;BME280;42565;53.342;-1.534;2022-09-12T03:18:27;98523.63;;;16.93;87.21
56689;BME280;42565;53.342;-1.534;2022-09-12T03:21:02;98519.28;;;17.03;86.53
56689;BME280;42565;53.342;-1.534;2022-09-12T03:23:35;98521.59;;;16.64;87.30
56689;BME280;42565;53.342;-1.534;2022-09-12T03:26:08;98518.21;;;17.06;86.03
56689;BME280;42565;53.342;-1.534;2022-09-12T03:28:38;98520.91;;;16.84;88.04
56689;BME280;42565;53.342;-1.534;2022-09-12T03:31:17;98517.85;;;16.22;91.50
56689;BME280;42565;53.342;-1.534;2022-09-12T03:33:45;98513.51;;;15.87;91.81
56689;BME280;42565;53.342;-1.534;2022-09-12T03:36:15;98508.79;;;16.19;91.57
56689;BME280;42565;53.342;-1.534;2022-09-12T03:38:43;98513.63;;;16.04;91.36
56689;BME280;42565;53.342;-1.534;2022-09-12T03:41:10;98505.78;;;16.03;90.66
56689;BME280;42565;53.342;-1.534;2022-09-12T03:43:38;98506.51;;;16.50;89.79
56689;BME280;42565;53.342;-1.534;2022-09-12T03:46:05;98502.94;;;16.97;88.06
56689;BME280;42565;53.342;-1.534;2022-09-12T03:48:33;98505.41;;;16.32;89.31
56689;BME280;42565;53.342;-1.534;2022-09-12T03:51:00;98500.31;;;16.53;88.59
56689;BME280;42565;53.342;-1.534;2022-09-12T03:53:28;98500.96;;;16.12;90.04
56689;BME280;42565;53.342;-1.534;2022-09-12T03:55:55;98494.59;;;16.61;87.59
56689;BME280;42565;53.342;-1.534;2022-09-12T03:58:22;98498.45;;;16.53;87.95
56689;BME280;42565;53.342;-1.534;2022-09-12T04:00:50;98491.73;;;16.87;87.31
56689;BME280;42565;53.342;-1.534;2022-09-12T04:03:17;98489.01;;;15.98;90.30
56689;BME280;42565;53.342;-1.534;2022-09-12T04:05:45;98486.60;;;16.35;87.45
56689;BME280;42565;53.342;-1.534;2022-09-12T04:08:12;98484.51;;;16.46;87.79
56689;BME280;42565;53.342;-1.534;2022-09-12T04:10:40;98480.45;;;16.33;89.38
56689;BME280;42565;53.342;-1.534;2022-09-12T04:13:07;98481.33;;;16.67;88.14
56689;BME280;42565;53.342;-1.534;2022-09-12T04:15:35;98476.28;;;16.16;89.42
56689;BME280;42565;53.342;-1.534;2022-09-12T04:18:02;98471.26;;;16.12;90.46
56689;BME280;42565;53.342;-1.534;2022-09-12T04:20:29;98469.83;;;16.10;90.76
56689;BME280;42565;53.342;-1.534;2022-09-12T04:22:56;98462.83;;;15.92;91.47
56689;BME280;42565;53.342;-1.534;2022-09-12T04:25:24;98465.91;;;16.22;91.63
56689;BME280;42565;53.342;-1.534;2022-09-12T04:27:52;98465.40;;;15.76;93.62
56689;BME280;42565;53.342;-1.534;2022-09-12T04:30:19;98463.02;;;16.23;89.86
56689;BME280;42565;53.342;-1.534;2022-09-12T04:32:46;98456.75;;;15.95;92.94
56689;BME280;42565;53.342;-1.534;2022-09-12T04:35:14;98458.67;;;16.16;91.95
56689;BME280;42565;53.342;-1.534;2022-09-12T04:37:41;98457.13;;;15.07;97.31
56689;BME280;42565;53.342;-1.534;2022-09-12T04:40:09;98452.22;;;15.56;96.32
56689;BME280;42565;53.342;-1.534;2022-09-12T04:42:36;98453.02;;;15.48;95.39
56689;BME280;42565;53.342;-1.534;2022-09-12T04:45:04;98453.79;;;15.69;95.42
56689;BME280;42565;53.342;-1.534;2022-09-12T04:47:31;98452.17;;;15.26;97.76
56689;BME280;42565;53.342;-1.534;2022-09-12T04:49:58;98449.22;;;15.39;98.17
56689;BME280;42565;53.342;-1.534;2022-09-12T04:52:25;98450.94;;;15.28;97.98
56689;BME280;42565;53.342;-1.534;2022-09-12T04:54:52;98447.98;;;15.80;95.84
56689;BME280;42565;53.342;-1.534;2022-09-12T04:57:20;98447.92;;;15.99;93.57
56689;BME280;42565;53.342;-1.534;2022-09-12T04:59:46;98449.27;;;16.08;93.35
56689;BME280;42565;53.342;-1.534;2022-09-12T05:02:13;98446.21;;;16.07;94.36
56689;BME280;42565;53.342;-1.534;2022-09-12T05:04:41;98457.75;;;16.04;93.08
56689;BME280;42565;53.342;-1.534;2022-09-12T05:07:08;98454.18;;;15.81;93.00
56689;BME280;42565;53.342;-1.534;2022-09-12T05:09:35;98449.96;;;16.23;91.11
56689;BME280;42565;53.342;-1.534;2022-09-12T05:12:02;98455.67;;;16.81;88.81
56689;BME280;42565;53.342;-1.534;2022-09-12T05:14:29;98460.53;;;16.73;88.25
56689;BME280;42565;53.342;-1.534;2022-09-12T05:16:57;98462.56;;;17.32;86.79
56689;BME280;42565;53.342;-1.534;2022-09-12T05:19:25;98472.37;;;16.68;89.06
56689;BME280;42565;53.342;-1.534;2022-09-12T05:21:52;98473.13;;;17.44;86.28
56689;BME280;42565;53.342;-1.534;2022-09-12T05:24:20;98470.73;;;17.20;85.86
56689;BME280;42565;53.342;-1.534;2022-09-12T05:26:47;98471.59;;;17.26;84.97
56689;BME280;42565;53.342;-1.534;2022-09-12T05:29:14;98472.65;;;17.54;83.55
56689;BME280;42565;53.342;-1.534;2022-09-12T05:31:42;98473.97;;;17.60;82.89
56689;BME280;42565;53.342;-1.534;2022-09-12T05:34:09;98472.29;;;17.11;85.62
56689;BME280;42565;53.342;-1.534;2022-09-12T05:36:37;98466.71;;;17.21;86.91
56689;BME280;42565;53.342;-1.534;2022-09-12T05:39:05;98467.75;;;16.85;87.06
56689;BME280;42565;53.342;-1.534;2022-09-12T05:41:33;98463.15;;;16.68;87.90
56689;BME280;42565;53.342;-1.534;2022-09-12T05:44:03;98465.81;;;16.75;86.19
56689;BME280;42565;53.342;-1.534;2022-09-12T05:46:35;98466.20;;;17.28;85.99
56689;BME280;42565;53.342;-1.534;2022-09-12T05:49:04;98467.96;;;17.28;85.27
56689;BME280;42565;53.342;-1.534;2022-09-12T05:51:33;98465.41;;;17.17;84.55
56689;BME280;42565;53.342;-1.534;2022-09-12T05:54:02;98470.59;;;17.57;83.40
56689;BME280;42565;53.342;-1.534;2022-09-12T05:56:32;98472.51;;;17.11;83.89
56689;BME280;42565;53.342;-1.534;2022-09-12T05:59:01;98476.55;;;17.10;86.43
56689;BME280;42565;53.342;-1.534;2022-09-12T06:01:31;98474.74;;;17.50;83.58
56689;BME280;42565;53.342;-1.534;2022-09-12T06:04:00;98475.12;;;17.61;83.38
56689;BME280;42565;53.342;-1.534;2022-09-12T06:06:29;98476.44;;;17.78;82.16
56689;BME280;42565;53.342;-1.534;2022-09-12T06:08:58;98473.39;;;17.34;83.36
56689;BME280;42565;53.342;-1.534;2022-09-12T06:11:27;98478.09;;;17.44;83.40
56689;BME280;42565;53.342;-1.534;2022-09-12T06:13:55;98481.60;;;18.34;80.27
56689;BME280;42565;53.342;-1.534;2022-09-12T06:16:25;98478.09;;;18.37;79.50
56689;BME280;42565;53.342;-1.534;2022-09-12T06:18:54;98473.32;;;17.27;83.20
56689;BME280;42565;53.342;-1.534;2022-09-12T06:21:23;98471.37;;;17.48;82.89
56689;BME280;42565;53.342;-1.534;2022-09-12T06:23:51;98468.16;;;17.57;82.23
56689;BME280;42565;53.342;-1.534;2022-09-12T06:26:19;98466.32;;;17.27;84.24
56689;BME280;42565;53.342;-1.534;2022-09-12T06:28:46;98468.99;;;17.95;81.66
56689;BME280;42565;53.342;-1.534;2022-09-12T06:31:16;98469.64;;;18.04;81.19
56689;BME280;42565;53.342;-1.534;2022-09-12T06:33:45;98470.71;;;17.62;82.39
56689;BME280;42565;53.342;-1.534;2022-09-12T06:36:14;98473.02;;;17.50;82.30
56689;BME280;42565;53.342;-1.534;2022-09-12T06:38:42;98476.30;;;17.75;81.88
56689;BME280;42565;53.342;-1.534;2022-09-12T06:41:10;98475.03;;;17.64;85.48
56689;BME280;42565;53.342;-1.534;2022-09-12T06:43:38;98483.23;;;17.73;83.45
56689;BME280;42565;53.342;-1.534;2022-09-12T06:46:06;98481.48;;;18.19;81.51
56689;BME280;42565;53.342;-1.534;2022-09-12T06:48:33;98478.83;;;17.47;83.22
56689;BME280;42565;53.342;-1.534;2022-09-12T06:51:02;98482.07;;;17.92;81.37
56689;BME280;42565;53.342;-1.534;2022-09-12T06:53:31;98485.59;;;18.03;79.59
56689;BME280;42565;53.342;-1.534;2022-09-12T06:55:59;98484.08;;;18.35;78.20
56689;BME280;42565;53.342;-1.534;2022-09-12T06:58:27;98485.71;;;18.58;79.02
56689;BME280;42565;53.342;-1.534;2022-09-12T07:01:00;98493.10;;;18.13;81.12
56689;BME280;42565;53.342;-1.534;2022-09-12T07:03:29;98482.43;;;17.94;81.50
56689;BME280;42565;53.342;-1.534;2022-09-12T07:05:56;98485.62;;;18.04;81.48
56689;BME280;42565;53.342;-1.534;2022-09-12T07:08:23;98481.92;;;17.48;84.92
56689;BME280;42565;53.342;-1.534;2022-09-12T07:10:51;98482.38;;;17.13;86.36
56689;BME280;42565;53.342;-1.534;2022-09-12T07:13:18;98476.76;;;17.03;87.87
56689;BME280;42565;53.342;-1.534;2022-09-12T07:15:44;98476.53;;;17.19;87.11
56689;BME280;42565;53.342;-1.534;2022-09-12T07:18:34;98479.44;;;16.65;90.23
56689;BME280;42565;53.342;-1.534;2022-09-12T07:21:03;98478.96;;;16.69;90.08
56689;BME280;42565;53.342;-1.534;2022-09-12T07:23:31;98479.24;;;16.86;90.65
56689;BME280;42565;53.342;-1.534;2022-09-12T07:26:00;98476.99;;;16.90;89.35
56689;BME280;42565;53.342;-1.534;2022-09-12T07:28:29;98478.29;;;17.17;88.47
56689;BME280;42565;53.342;-1.534;2022-09-12T07:30:56;98476.40;;;16.97;87.61
56689;BME280;42565;53.342;-1.534;2022-09-12T07:33:27;98474.67;;;17.20;86.92
56689;BME280;42565;53.342;-1.534;2022-09-12T07:35:59;98480.88;;;17.94;84.94
56689;BME280;42565;53.342;-1.534;2022-09-12T07:38:27;98479.17;;;18.32;82.98
56689;BME280;42565;53.342;-1.534;2022-09-12T07:40:54;98478.10;;;17.84;84.81
56689;BME280;42565;53.342;-1.534;2022-09-12T07:43:23;98478.15;;;18.11;83.15
56689;BME280;42565;53.342;-1.534;2022-09-12T07:45:54;98470.31;;;17.68;85.84
56689;BME280;42565;53.342;-1.534;2022-09-12T07:48:21;98468.87;;;18.01;84.31
56689;BME280;42565;53.342;-1.534;2022-09-12T07:50:56;98472.94;;;17.92;84.62
56689;BME280;42565;53.342;-1.534;2022-09-12T07:53:23;98476.29;;;18.53;83.04
56689;BME280;42565;53.342;-1.534;2022-09-12T07:55:53;98481.22;;;18.11;84.05
56689;BME280;42565;53.342;-1.534;2022-09-12T07:58:20;98483.77;;;18.53;82.92
56689;BME280;42565;53.342;-1.534;2022-09-12T08:00:48;98480.08;;;18.39;82.34
56689;BME280;42565;53.342;-1.534;2022-09-12T08:03:15;98476.08;;;18.18;83.56
56689;BME280;42565;53.342;-1.534;2022-09-12T08:05:43;98473.38;;;18.10;83.14
56689;BME280;42565;53.342;-1.534;2022-09-12T08:08:10;98464.85;;;18.00;85.10
56689;BME280;42565;53.342;-1.534;2022-09-12T08:10:37;98462.15;;;18.94;82.07
56689;BME280;42565;53.342;-1.534;2022-09-12T08:13:05;98462.54;;;19.00;80.29
56689;BME280;42565;53.342;-1.534;2022-09-12T08:15:33;98465.23;;;19.19;79.66
56689;BME280;42565;53.342;-1.534;2022-09-12T08:18:01;98468.58;;;18.37;83.80
56689;BME280;42565;53.342;-1.534;2022-09-12T08:20:28;98462.02;;;18.28;85.27
56689;BME280;42565;53.342;-1.534;2022-09-12T08:22:56;98461.83;;;17.95;86.23
56689;BME280;42565;53.342;-1.534;2022-09-12T08:25:23;98462.88;;;18.28;85.62
56689;BME280;42565;53.342;-1.534;2022-09-12T08:27:51;98468.57;;;18.48;83.94
56689;BME280;42565;53.342;-1.534;2022-09-12T08:30:18;98466.47;;;18.18;86.97
56689;BME280;42565;53.342;-1.534;2022-09-12T08:32:45;98461.84;;;18.15;86.10
56689;BME280;42565;53.342;-1.534;2022-09-12T08:35:13;98467.62;;;18.33;87.80
56689;BME280;42565;53.342;-1.534;2022-09-12T08:37:40;98463.01;;;18.12;88.98
56689;BME280;42565;53.342;-1.534;2022-09-12T08:40:14;98456.92;;;18.19;87.79
56689;BME280;42565;53.342;-1.534;2022-09-12T08:42:52;98460.84;;;17.78;90.27
56689;BME280;42565;53.342;-1.534;2022-09-12T08:45:26;98458.57;;;18.32;89.69
56689;BME280;42565;53.342;-1.534;2022-09-12T08:47:55;98463.48;;;18.62;87.66
56689;BME280;42565;53.342;-1.534;2022-09-12T08:50:23;98461.58;;;18.57;88.03
56689;BME280;42565;53.342;-1.534;2022-09-12T08:52:55;98465.44;;;18.68;86.03
56689;BME280;42565;53.342;-1.534;2022-09-12T08:55:30;98467.75;;;19.12;83.16
56689;BME280;42565;53.342;-1.534;2022-09-12T08:57:58;98460.55;;;19.03;84.03
56689;BME280;42565;53.342;-1.534;2022-09-12T09:00:34;98467.47;;;19.76;81.59
56689;BME280;42565;53.342;-1.534;2022-09-12T09:03:36;98469.39;;;19.51;82.55
56689;BME280;42565;53.342;-1.534;2022-09-12T09:06:19;98467.26;;;19.31;82.66
56689;BME280;42565;53.342;-1.534;2022-09-12T09:08:56;98459.26;;;18.85;84.17
56689;BME280;42565;53.342;-1.534;2022-09-12T09:11:36;98462.91;;;18.48;85.44
56689;BME280;42565;53.342;-1.534;2022-09-12T09:14:24;98463.49;;;19.62;82.63
56689;BME280;42565;53.342;-1.534;2022-09-12T09:16:55;98462.42;;;18.93;82.55
56689;BME280;42565;53.342;-1.534;2022-09-12T09:19:27;98463.71;;;18.48;85.67
56689;BME280;42565;53.342;-1.534;2022-09-12T09:21:58;98464.48;;;19.09;83.26
56689;BME280;42565;53.342;-1.534;2022-09-12T09:24:32;98470.97;;;19.11;81.27
56689;BME280;42565;53.342;-1.534;2022-09-12T09:27:02;98465.59;;;19.74;79.00
56689;BME280;42565;53.342;-1.534;2022-09-12T09:29:35;98466.58;;;19.44;81.77
56689;BME280;42565;53.342;-1.534;2022-09-12T09:32:10;98470.58;;;19.22;80.66
56689;BME280;42565;53.342;-1.534;2022-09-12T09:34:40;98468.83;;;19.81;78.40
56689;BME280;42565;53.342;-1.534;2022-09-12T09:37:14;98468.44;;;19.52;80.48
56689;BME280;42565;53.342;-1.534;2022-09-12T09:39:51;98475.67;;;19.48;82.65
56689;BME280;42565;53.342;-1.534;2022-09-12T09:42:32;98475.54;;;19.44;82.87
56689;BME280;42565;53.342;-1.534;2022-09-12T09:45:12;98473.60;;;19.78;79.74
56689;BME280;42565;53.342;-1.534;2022-09-12T09:47:40;98480.65;;;19.85;79.45
56689;BME280;42565;53.342;-1.534;2022-09-12T09:50:13;98478.37;;;20.37;77.71
56689;BME280;42565;53.342;-1.534;2022-09-12T09:52:40;98479.75;;;20.50;76.37
56689;BME280;42565;53.342;-1.534;2022-09-12T09:55:12;98480.12;;;20.69;76.70
56689;BME280;42565;53.342;-1.534;2022-09-12T09:57:44;98480.95;;;20.33;75.73
56689;BME280;42565;53.342;-1.534;2022-09-12T10:00:29;98476.90;;;20.89;74.77
56689;BME280;42565;53.342;-1.534;2022-09-12T10:03:02;98488.14;;;20.50;75.80
56689;BME280;42565;53.342;-1.534;2022-09-12T10:05:32;98482.43;;;20.33;75.87
56689;BME280;42565;53.342;-1.534;2022-09-12T10:08:00;98485.58;;;20.07;76.22
56689;BME280;42565;53.342;-1.534;2022-09-12T10:10:28;98487.07;;;20.22;76.30
56689;BME280;42565;53.342;-1.534;2022-09-12T10:13:07;98481.73;;;20.82;75.63
56689;BME280;42565;53.342;-1.534;2022-09-12T10:15:35;98474.87;;;21.00;74.77
56689;BME280;42565;53.342;-1.534;2022-09-12T10:18:02;98482.47;;;21.09;72.84
56689;BME280;42565;53.342;-1.534;2022-09-12T10:20:33;98483.35;;;21.28;73.05
56689;BME280;42565;53.342;-1.534;2022-09-12T10:23:03;98487.97;;;21.95;72.08
56689;BME280;42565;53.342;-1.534;2022-09-12T10:25:33;98492.28;;;21.67;69.46
56689;BME280;42565;53.342;-1.534;2022-09-12T10:28:18;98491.69;;;21.86;70.72
56689;BME280;42565;53.342;-1.534;2022-09-12T10:30:50;98490.72;;;21.42;70.73
56689;BME280;42565;53.342;-1.534;2022-09-12T10:33:18;98493.55;;;21.69;70.03
56689;BME280;42565;53.342;-1.534;2022-09-12T10:35:47;98491.48;;;21.36;70.73
56689;BME280;42565;53.342;-1.534;2022-09-12T10:38:21;98485.50;;;21.45;70.90
56689;BME280;42565;53.342;-1.534;2022-09-12T10:40:55;98491.20;;;22.12;71.01
56689;BME280;42565;53.342;-1.534;2022-09-12T10:43:27;98490.11;;;21.77;68.93
56689;BME280;42565;53.342;-1.534;2022-09-12T10:45:56;98484.16;;;21.79;68.76
56689;BME280;42565;53.342;-1.534;2022-09-12T10:48:28;98488.95;;;21.86;67.95
56689;BME280;42565;53.342;-1.534;2022-09-12T10:50:56;98495.03;;;22.02;67.23
56689;BME280;42565;53.342;-1.534;2022-09-12T10:53:25;98488.89;;;21.87;67.01
56689;BME280;42565;53.342;-1.534;2022-09-12T10:56:02;98487.18;;;22.35;67.13
56689;BME280;42565;53.342;-1.534;2022-09-12T10:58:39;98490.06;;;22.09;66.80
56689;BME280;42565;53.342;-1.534;2022-09-12T11:01:17;98491.04;;;22.31;67.73
56689;BME280;42565;53.342;-1.534;2022-09-12T11:03:58;98490.06;;;22.42;66.71
56689;BME280;42565;53.342;-1.534;2022-09-12T11:06:35;98489.37;;;22.41;67.21
56689;BME280;42565;53.342;-1.534;2022-09-12T11:09:11;98486.62;;;22.49;66.91
56689;BME280;42565;53.342;-1.534;2022-09-12T11:11:53;98489.12;;;22.73;64.96
56689;BME280;42565;53.342;-1.534;2022-09-12T11:14:31;98487.30;;;22.73;65.81
56689;BME280;42565;53.342;-1.534;2022-09-12T11:17:10;98489.01;;;21.82;66.75
56689;BME280;42565;53.342;-1.534;2022-09-12T11:20:08;98489.38;;;21.80;68.14
56689;BME280;42565;53.342;-1.534;2022-09-12T11:22:50;98477.29;;;21.71;68.83
56689;BME280;42565;53.342;-1.534;2022-09-12T11:25:29;98479.21;;;21.91;68.72
56689;BME280;42565;53.342;-1.534;2022-09-12T11:28:12;98478.32;;;22.35;66.20
56689;BME280;42565;53.342;-1.534;2022-09-12T11:30:49;98469.68;;;21.96;69.25
56689;BME280;42565;53.342;-1.534;2022-09-12T11:33:31;98465.28;;;21.94;67.94
56689;BME280;42565;53.342;-1.534;2022-09-12T11:36:07;98469.73;;;21.46;69.55
56689;BME280;42565;53.342;-1.534;2022-09-12T11:38:46;98472.47;;;21.86;69.37
56689;BME280;42565;53.342;-1.534;2022-09-12T11:41:20;98476.33;;;21.79;70.42
56689;BME280;42565;53.342;-1.534;2022-09-12T11:43:53;98482.68;;;21.76;71.17
56689;BME280;42565;53.342;-1.534;2022-09-12T11:46:28;98490.01;;;21.62;71.15
56689;BME280;42565;53.342;-1.534;2022-09-12T11:49:00;98491.64;;;20.86;71.69
56689;BME280;42565;53.342;-1.534;2022-09-12T11:51:36;98488.09;;;20.95;73.06
56689;BME280;42565;53.342;-1.534;2022-09-12T11:54:13;98491.81;;;20.65;73.09
56689;BME280;42565;53.342;-1.534;2022-09-12T11:56:45;98492.58;;;20.57;72.34
56689;BME280;42565;53.342;-1.534;2022-09-12T11:59:21;98493.10;;;21.04;71.55
56689;BME280;42565;53.342;-1.534;2022-09-12T12:02:07;98495.32;;;21.69;69.93
56689;BME280;42565;53.342;-1.534;2022-09-12T12:04:43;98496.55;;;21.79;69.00
56689;BME280;42565;53.342;-1.534;2022-09-12T12:07:14;98497.00;;;21.70;69.42
56689;BME280;42565;53.342;-1.534;2022-09-12T12:09:48;98494.22;;;21.29;70.02
56689;BME280;42565;53.342;-1.534;2022-09-12T12:12:21;98493.74;;;21.00;72.32
56689;BME280;42565;53.342;-1.534;2022-09-12T12:14:53;98488.22;;;20.95;70.92
56689;BME280;42565;53.342;-1.534;2022-09-12T12:17:22;98490.10;;;21.05;71.25
56689;BME280;42565;53.342;-1.534;2022-09-12T12:19:58;98497.43;;;21.45;70.00
56689;BME280;42565;53.342;-1.534;2022-09-12T12:22:27;98494.39;;;21.30;70.23
56689;BME280;42565;53.342;-1.534;2022-09-12T12:25:04;98498.33;;;22.00;69.31
56689;BME280;42565;53.342;-1.534;2022-09-12T12:27:51;98497.07;;;21.95;69.67
56689;BME280;42565;53.342;-1.534;2022-09-12T12:31:00;98489.37;;;21.49;68.75
56689;BME280;42565;53.342;-1.534;2022-09-12T12:34:03;98500.86;;;21.67;68.06
56689;BME280;42565;53.342;-1.534;2022-09-12T12:36:41;98502.84;;;21.77;67.38
56689;BME280;42565;53.342;-1.534;2022-09-12T12:39:59;98511.86;;;22.22;68.29
56689;BME280;42565;53.342;-1.534;2022-09-12T12:43:26;98513.60;;;21.64;67.97
56689;BME280;42565;53.342;-1.534;2022-09-12T12:46:04;98512.25;;;21.78;68.45
56689;BME280;42565;53.342;-1.534;2022-09-12T12:48:45;98510.55;;;21.54;68.84
56689;BME280;42565;53.342;-1.534;2022-09-12T12:51:23;98502.04;;;21.59;67.71
56689;BME280;42565;53.342;-1.534;2022-09-12T12:53:52;98493.90;;;21.68;67.99
56689;BME280;42565;53.342;-1.534;2022-09-12T12:56:33;98494.59;;;21.09;69.59
56689;BME280;42565;53.342;-1.534;2022-09-12T12:59:02;98491.45;;;20.91;68.91
56689;BME280;42565;53.342;-1.534;2022-09-12T13:01:30;98497.48;;;20.94;69.13
56689;BME280;42565;53.342;-1.534;2022-09-12T13:04:01;98492.60;;;21.52;68.35
56689;BME280;42565;53.342;-1.534;2022-09-12T13:06:33;98491.99;;;21.12;69.15
56689;BME280;42565;53.342;-1.534;2022-09-12T13:09:03;98490.43;;;21.21;69.19
56689;BME280;42565;53.342;-1.534;2022-09-12T13:11:33;98490.94;;;21.58;67.87
56689;BME280;42565;53.342;-1.534;2022-09-12T13:14:03;98492.17;;;21.95;66.48
56689;BME280;42565;53.342;-1.534;2022-09-12T13:16:33;98488.03;;;21.87;65.86